createdAt,value
2022-11-16T00:01:21.652Z,11.45
2022-11-16T00:03:50.223Z,11.10
2022-11-16T00:06:17.808Z,11.44
2022-11-16T00:08:47.425Z,11.55
2022-11-16T00:11:17.329Z,11.56
2022-11-16T00:13:44.157Z,11.32
2022-11-16T00:16:15.094Z,11.31
2022-11-16T00:18:42.681Z,11.34
2022-11-16T00:21:09.719Z,11.46
2022-11-16T00:23:37.792Z,11.36
2022-11-16T00:26:05.556Z,11.26
2022-11-16T00:28:34.057Z,11.29
2022-11-16T00:31:01.612Z,11.27
2022-11-16T00:33:28.644Z,11.06
2022-11-16T00:35:55.709Z,11.39
2022-11-16T00:38:23.449Z,11.24
2022-11-16T00:40:50.315Z,11.11
2022-11-16T00:43:17.163Z,10.99
2022-11-16T00:45:45.986Z,10.91
2022-11-16T00:48:13.571Z,10.92
2022-11-16T00:50:40.566Z,11.24
2022-11-16T00:53:08.272Z,11.09
2022-11-16T00:55:35.145Z,11.26
2022-11-16T00:58:01.967Z,11.17
2022-11-16T01:00:28.816Z,10.76
2022-11-16T01:03:03.389Z,10.74
2022-11-16T01:05:30.805Z,11.11
2022-11-16T01:07:57.910Z,11.05
2022-11-16T01:10:26.443Z,10.81
2022-11-16T01:12:53.703Z,10.78
2022-11-16T01:15:23.720Z,10.82
2022-11-16T01:17:51.848Z,11.16
2022-11-16T01:20:21.830Z,11.13
2022-11-16T01:22:48.942Z,11.08
2022-11-16T01:25:16.246Z,11.17
2022-11-16T01:27:43.704Z,11.11
2022-11-16T01:30:13.726Z,11.24
2022-11-16T01:32:40.721Z,11.01
2022-11-16T01:35:08.494Z,10.92
2022-11-16T01:37:36.853Z,10.75
2022-11-16T01:40:07.091Z,11.05
2022-11-16T01:42:34.065Z,10.55
2022-11-16T01:45:05.439Z,10.84
2022-11-16T01:47:35.554Z,11.26
2022-11-16T01:50:11.170Z,11.32
2022-11-16T01:52:43.601Z,11.27
2022-11-16T01:55:11.436Z,11.25
2022-11-16T01:57:42.481Z,11.60
2022-11-16T02:00:11.976Z,11.38
2022-11-16T02:02:38.569Z,11.49
2022-11-16T02:05:06.961Z,11.42
2022-11-16T02:07:57.971Z,11.45
2022-11-16T02:10:35.552Z,11.17
2022-11-16T02:13:18.023Z,10.88
2022-11-16T02:15:51.806Z,10.80
2022-11-16T02:18:29.956Z,11.14
2022-11-16T02:21:44.351Z,10.91
2022-11-16T02:24:47.725Z,10.90
2022-11-16T02:27:37.247Z,10.88
2022-11-16T02:30:07.044Z,10.58
2022-11-16T02:32:38.890Z,10.92
2022-11-16T02:35:12.073Z,10.93
2022-11-16T02:37:43.854Z,10.62
2022-11-16T02:40:13.448Z,10.30
2022-11-16T02:42:44.077Z,10.40
2022-11-16T02:45:17.494Z,10.58
2022-11-16T02:47:46.916Z,10.48
2022-11-16T02:50:16.938Z,10.72
2022-11-16T02:52:43.777Z,10.61
2022-11-16T02:55:11.662Z,10.75
2022-11-16T02:57:44.412Z,10.45
2022-11-16T03:00:20.574Z,10.25
2022-11-16T03:02:55.250Z,10.31
2022-11-16T03:05:25.911Z,9.96
2022-11-16T03:08:00.441Z,10.21
2022-11-16T03:10:27.607Z,10.52
2022-11-16T03:12:54.500Z,10.00
2022-11-16T03:15:23.135Z,10.31
2022-11-16T03:17:50.591Z,9.99
2022-11-16T03:20:22.448Z,9.91
2022-11-16T03:22:52.666Z,10.20
2022-11-16T03:25:21.285Z,10.08
2022-11-16T03:27:53.348Z,10.11
2022-11-16T03:30:24.239Z,10.63
2022-11-16T03:32:56.952Z,10.07
2022-11-16T03:35:27.886Z,10.16
2022-11-16T03:37:57.935Z,9.93
2022-11-16T03:40:27.115Z,10.16
2022-11-16T03:42:55.583Z,10.20
2022-11-16T03:45:28.117Z,10.30
2022-11-16T03:47:54.872Z,10.62
2022-11-16T03:50:21.812Z,10.26
2022-11-16T03:52:48.572Z,10.50
2022-11-16T03:55:15.656Z,10.29
2022-11-16T03:57:42.523Z,10.59
2022-11-16T04:00:10.638Z,10.36
2022-11-16T04:02:38.897Z,10.32
2022-11-16T04:05:06.047Z,10.57
2022-11-16T04:07:32.889Z,10.57
2022-11-16T04:09:59.786Z,10.30
2022-11-16T04:12:26.560Z,10.28
2022-11-16T04:14:53.355Z,10.18
2022-11-16T04:17:23.686Z,10.24
2022-11-16T04:19:58.129Z,10.36
2022-11-16T04:22:31.011Z,9.89
2022-11-16T04:25:05.029Z,10.17
2022-11-16T04:27:32.481Z,10.10
2022-11-16T04:30:01.460Z,10.14
2022-11-16T04:32:28.564Z,10.21
2022-11-16T04:34:57.019Z,9.75
2022-11-16T04:37:23.989Z,10.02
2022-11-16T04:39:50.789Z,9.77
2022-11-16T04:42:18.483Z,9.85
2022-11-16T04:44:45.234Z,9.70
2022-11-16T04:47:12.124Z,9.63
2022-11-16T04:49:38.907Z,9.99
2022-11-16T04:52:07.025Z,9.78
2022-11-16T04:54:36.288Z,10.12
2022-11-16T04:57:03.023Z,9.56
2022-11-16T04:59:29.798Z,9.44
2022-11-16T05:01:56.614Z,9.73
2022-11-16T05:04:23.331Z,9.74
2022-11-16T05:06:50.291Z,9.66
2022-11-16T05:09:18.566Z,9.61
2022-11-16T05:11:45.573Z,10.02
2022-11-16T05:14:15.166Z,9.56
2022-11-16T05:16:41.864Z,10.14
2022-11-16T05:19:08.856Z,10.09
2022-11-16T05:21:35.677Z,9.74
2022-11-16T05:24:03.596Z,9.85
2022-11-16T05:26:34.441Z,9.91
2022-11-16T05:29:01.226Z,9.82
2022-11-16T05:31:27.946Z,10.02
2022-11-16T05:33:54.724Z,10.01
2022-11-16T05:36:22.893Z,9.67
2022-11-16T05:38:52.731Z,9.87
2022-11-16T05:41:22.960Z,9.81
2022-11-16T05:43:51.088Z,9.80
2022-11-16T05:46:17.884Z,9.92
2022-11-16T05:48:44.762Z,9.48
2022-11-16T05:51:11.651Z,9.63
2022-11-16T05:53:38.614Z,9.77
2022-11-16T05:56:06.239Z,9.84
2022-11-16T05:58:33.480Z,9.72
2022-11-16T06:01:01.977Z,9.91
2022-11-16T06:03:29.564Z,9.87
2022-11-16T06:05:56.922Z,9.97
2022-11-16T06:08:23.777Z,9.95
2022-11-16T06:10:50.600Z,9.73
2022-11-16T06:13:17.491Z,9.93
2022-11-16T06:15:50.300Z,10.11
2022-11-16T06:18:18.588Z,10.10
2022-11-16T06:20:45.456Z,10.07
2022-11-16T06:23:12.156Z,10.26
2022-11-16T06:25:39.544Z,10.11
2022-11-16T06:28:08.146Z,10.18
2022-11-16T06:30:35.200Z,10.31
2022-11-16T06:33:01.947Z,10.13
2022-11-16T06:35:30.140Z,9.97
2022-11-16T06:37:57.955Z,10.55
2022-11-16T06:40:25.453Z,10.11
2022-11-16T06:42:52.181Z,10.41
2022-11-16T06:45:18.984Z,10.43
2022-11-16T06:47:46.647Z,10.63
2022-11-16T06:50:13.443Z,10.51
2022-11-16T06:52:41.635Z,10.71
2022-11-16T06:55:09.229Z,10.66
2022-11-16T06:57:36.070Z,10.50
2022-11-16T07:00:04.466Z,10.73
2022-11-16T07:03:09.341Z,11.09
2022-11-16T07:05:39.826Z,11.06
2022-11-16T07:08:08.268Z,10.98
2022-11-16T07:10:35.237Z,10.90
2022-11-16T07:13:02.952Z,10.92
2022-11-16T07:15:29.830Z,10.89
2022-11-16T07:17:56.663Z,11.17
2022-11-16T07:20:23.357Z,11.07
2022-11-16T07:22:50.161Z,11.20
2022-11-16T07:25:18.324Z,11.14
2022-11-16T07:27:45.124Z,10.93
2022-11-16T07:30:13.117Z,11.11
2022-11-16T07:32:40.016Z,10.66
2022-11-16T07:35:07.488Z,11.07
2022-11-16T07:37:34.241Z,10.93
2022-11-16T07:40:01.112Z,11.13
2022-11-16T07:42:29.306Z,11.18
2022-11-16T07:44:56.138Z,11.06
2022-11-16T07:47:22.921Z,11.05
2022-11-16T07:49:49.744Z,11.29
2022-11-16T07:52:16.531Z,11.45
2022-11-16T07:54:43.184Z,11.27
2022-11-16T07:57:10.023Z,11.32
2022-11-16T07:59:38.105Z,11.21
2022-11-16T08:02:04.946Z,11.08
2022-11-16T08:04:31.715Z,11.13
2022-11-16T08:06:58.614Z,11.41
2022-11-16T08:09:25.299Z,11.14
2022-11-16T08:11:52.023Z,11.34
2022-11-16T08:14:18.732Z,11.11
2022-11-16T08:16:46.980Z,11.46
2022-11-16T08:19:15.829Z,11.26
2022-11-16T08:21:42.576Z,11.14
2022-11-16T08:24:09.749Z,11.28
2022-11-16T08:26:36.489Z,11.20
2022-11-16T08:29:03.336Z,11.43
2022-11-16T08:31:30.069Z,11.15
2022-11-16T08:34:00.867Z,11.05
2022-11-16T08:36:27.965Z,11.63
2022-11-16T08:38:54.681Z,11.44
2022-11-16T08:41:21.709Z,11.42
2022-11-16T08:43:48.648Z,11.25
2022-11-16T08:46:15.340Z,11.54
2022-11-16T08:48:42.403Z,11.53
2022-11-16T08:51:20.503Z,11.70
2022-11-16T08:53:49.142Z,11.77
2022-11-16T08:56:18.301Z,11.58
2022-11-16T08:58:45.090Z,11.67
2022-11-16T09:01:14.007Z,11.72
2022-11-16T09:03:41.222Z,11.35
2022-11-16T09:06:11.341Z,11.74
2022-11-16T09:08:40.153Z,11.38
2022-11-16T09:11:08.880Z,11.54
2022-11-16T09:13:35.654Z,11.73
2022-11-16T09:16:02.819Z,11.51
2022-11-16T09:18:30.151Z,11.47
2022-11-16T09:20:57.118Z,11.50
2022-11-16T09:23:25.996Z,11.60
2022-11-16T09:25:53.105Z,11.62
2022-11-16T09:28:20.480Z,11.60
2022-11-16T09:30:50.664Z,11.69
2022-11-16T09:33:17.632Z,11.41
2022-11-16T09:35:45.673Z,11.58
2022-11-16T09:38:17.476Z,11.79
2022-11-16T09:40:55.028Z,11.76
2022-11-16T09:43:42.473Z,11.57
2022-11-16T09:46:25.743Z,11.76
2022-11-16T09:48:58.226Z,11.66
2022-11-16T09:51:29.698Z,11.72
2022-11-16T09:54:02.266Z,11.93
2022-11-16T09:56:34.400Z,11.97
2022-11-16T09:59:17.788Z,11.89
2022-11-16T10:01:50.686Z,11.82
2022-11-16T10:04:22.861Z,11.75
2022-11-16T10:06:53.186Z,11.72
2022-11-16T10:09:22.765Z,11.98
2022-11-16T10:11:59.364Z,12.01
2022-11-16T10:14:56.816Z,11.66
2022-11-16T10:17:33.428Z,11.92
2022-11-16T10:20:18.040Z,12.06
2022-11-16T10:26:30.070Z,11.71
2022-11-16T10:29:14.249Z,12.03
2022-11-16T10:31:57.849Z,11.75
2022-11-16T10:34:37.055Z,11.85
2022-11-16T10:37:07.438Z,11.98
2022-11-16T10:39:34.581Z,11.99
2022-11-16T10:42:10.268Z,12.19
2022-11-16T10:44:41.652Z,12.21
2022-11-16T10:47:19.137Z,12.13
2022-11-16T10:49:53.749Z,11.76
2022-11-16T10:52:20.540Z,12.06
2022-11-16T10:54:47.258Z,12.12
2022-11-16T10:57:16.823Z,12.40
2022-11-16T10:59:47.812Z,12.42
2022-11-16T11:02:30.252Z,12.06
2022-11-16T11:05:06.623Z,12.27
2022-11-16T11:07:35.550Z,12.20
2022-11-16T11:10:02.706Z,12.50
2022-11-16T11:12:29.547Z,12.41
2022-11-16T11:15:07.581Z,12.00
2022-11-16T11:17:35.699Z,12.26
2022-11-16T11:20:04.778Z,12.19
2022-11-16T11:22:33.037Z,12.52
2022-11-16T11:25:02.222Z,12.37
2022-11-16T11:27:33.742Z,12.54
2022-11-16T11:30:01.007Z,12.32
2022-11-16T11:32:34.301Z,12.22
2022-11-16T11:35:02.292Z,12.33
2022-11-16T11:37:34.734Z,12.35
2022-11-16T11:40:07.575Z,12.28
2022-11-16T11:42:36.524Z,12.31
2022-11-16T11:45:08.057Z,11.96
2022-11-16T11:47:58.091Z,12.11
2022-11-16T11:50:38.412Z,11.99
2022-11-16T11:53:11.624Z,12.44
2022-11-16T11:55:40.757Z,11.89
2022-11-16T11:58:13.547Z,11.67
2022-11-16T12:00:50.515Z,11.79
2022-11-16T12:03:41.784Z,11.34
2022-11-16T12:06:17.880Z,11.75
2022-11-16T12:09:09.011Z,11.98
2022-11-16T12:11:53.056Z,12.17
2022-11-16T12:14:52.213Z,12.01
2022-11-16T12:20:44.018Z,12.62
2022-11-16T12:23:31.974Z,12.78
2022-11-16T12:26:10.167Z,12.50
2022-11-16T12:28:58.250Z,12.58
2022-11-16T12:31:51.651Z,13.02
2022-11-16T12:34:30.602Z,12.69
2022-11-16T12:37:12.150Z,12.94
2022-11-16T12:40:02.782Z,12.85
2022-11-16T12:42:44.123Z,12.97
2022-11-16T12:45:46.823Z,12.85
2022-11-16T12:48:42.312Z,13.13
2022-11-16T12:51:21.136Z,13.06
2022-11-16T12:54:11.019Z,13.08
2022-11-16T12:56:54.626Z,13.05
2022-11-16T12:59:38.660Z,13.16
2022-11-16T13:02:17.520Z,12.89
2022-11-16T13:04:52.705Z,12.96
2022-11-16T13:07:27.768Z,12.92
2022-11-16T13:10:00.994Z,12.44
2022-11-16T13:12:30.611Z,12.64
2022-11-16T13:15:08.934Z,12.45
2022-11-16T13:23:58.717Z,12.40
2022-11-16T13:26:35.132Z,12.43
2022-11-16T13:29:12.011Z,12.30
2022-11-16T13:31:44.836Z,12.97
2022-11-16T13:34:19.012Z,12.63
2022-11-16T13:36:46.662Z,13.21
2022-11-16T13:39:28.547Z,13.01
2022-11-16T13:42:24.434Z,13.09
2022-11-16T13:45:04.544Z,12.70
2022-11-16T13:47:48.668Z,12.66
2022-11-16T13:50:25.645Z,12.30
2022-11-16T13:56:06.176Z,12.54
2022-11-16T13:58:37.534Z,12.63
2022-11-16T14:01:06.721Z,12.46
2022-11-16T14:03:36.614Z,12.21
2022-11-16T14:09:41.726Z,12.48
2022-11-16T14:12:53.069Z,12.56
2022-11-16T14:15:32.817Z,13.05
2022-11-16T14:18:22.240Z,12.61
2022-11-16T14:20:55.865Z,12.94
2022-11-16T14:23:35.099Z,12.48
2022-11-16T14:26:12.700Z,12.54
2022-11-16T14:28:51.194Z,12.49
2022-11-16T14:31:25.394Z,12.54
2022-11-16T14:33:54.782Z,12.69
2022-11-16T14:36:37.661Z,12.45
2022-11-16T14:39:30.791Z,12.43
2022-11-16T14:42:00.685Z,12.43
2022-11-16T14:44:31.827Z,12.56
2022-11-16T14:47:02.297Z,12.81
2022-11-16T14:49:33.018Z,12.73
2022-11-16T14:52:01.649Z,12.69
2022-11-16T14:54:36.779Z,12.92
2022-11-16T14:57:06.101Z,12.38
2022-11-16T14:59:33.028Z,12.55
2022-11-16T15:02:04.880Z,12.65
2022-11-16T15:04:32.102Z,12.73
2022-11-16T15:07:03.134Z,12.64
2022-11-16T15:09:33.890Z,12.44
2022-11-16T15:12:07.770Z,12.70
2022-11-16T15:14:41.894Z,12.95
2022-11-16T15:17:20.230Z,12.59
2022-11-16T15:19:59.039Z,12.38
2022-11-16T15:22:31.288Z,12.23
2022-11-16T15:25:01.087Z,12.64
2022-11-16T15:27:41.335Z,12.26
2022-11-16T15:30:17.080Z,12.68
2022-11-16T15:32:51.339Z,12.50
2022-11-16T15:35:30.066Z,12.72
2022-11-16T15:38:05.984Z,12.11
2022-11-16T15:40:34.606Z,12.35
2022-11-16T15:43:09.812Z,12.20
2022-11-16T15:45:44.803Z,12.27
2022-11-16T15:48:26.991Z,12.21
2022-11-16T15:51:05.252Z,12.54
2022-11-16T15:53:45.912Z,12.34
2022-11-16T15:56:16.771Z,12.69
2022-11-16T15:58:47.124Z,12.42
2022-11-16T16:04:02.121Z,12.31
2022-11-16T16:06:47.631Z,12.67
2022-11-16T16:09:25.484Z,12.83
2022-11-16T16:11:53.004Z,12.30
2022-11-16T16:14:36.713Z,12.29
2022-11-16T16:17:49.495Z,12.18
2022-11-16T16:24:00.406Z,12.35
2022-11-16T16:26:43.523Z,12.67
2022-11-16T17:06:52.612Z,12.46
2022-11-16T17:09:20.744Z,12.07
2022-11-16T17:11:48.116Z,11.67
2022-11-16T17:14:15.122Z,11.94
2022-11-16T17:16:42.249Z,11.92
2022-11-16T17:19:09.199Z,11.87
2022-11-16T17:21:36.080Z,12.03
2022-11-16T17:24:06.022Z,12.03
2022-11-16T17:26:50.040Z,11.99
2022-11-16T17:29:28.171Z,12.09
2022-11-16T17:32:10.215Z,12.03
2022-11-16T17:34:37.667Z,11.55
2022-11-16T17:37:07.040Z,11.73
2022-11-16T17:40:03.302Z,11.55
2022-11-16T17:42:50.928Z,11.92
2022-11-16T17:45:31.807Z,12.11
2022-11-16T17:48:25.189Z,11.82
2022-11-16T17:51:01.281Z,11.80
2022-11-16T17:53:40.916Z,11.71
2022-11-16T17:56:28.989Z,11.66
2022-11-16T17:59:11.314Z,11.76
2022-11-16T18:01:40.685Z,11.61
2022-11-16T18:04:10.886Z,11.81
2022-11-16T18:33:40.834Z,11.58
2022-11-16T18:36:34.409Z,11.49
2022-11-16T18:39:31.332Z,11.12
2022-11-16T18:42:10.201Z,11.33
2022-11-16T18:45:10.084Z,11.35
2022-11-16T22:41:09.828Z,10.31
2022-11-16T22:43:37.446Z,9.91
2022-11-16T22:46:12.732Z,9.87
2022-11-16T22:48:52.058Z,10.10
2022-11-16T22:51:30.536Z,9.80
2022-11-16T22:54:04.598Z,10.16
2022-11-16T22:56:48.997Z,10.45
2022-11-16T22:59:15.984Z,10.36
2022-11-16T23:01:44.480Z,10.33
2022-11-16T23:04:16.358Z,9.91
2022-11-16T23:06:53.946Z,10.27
2022-11-16T23:09:22.430Z,9.72
2022-11-16T23:11:49.765Z,10.03
2022-11-16T23:14:21.235Z,9.76
2022-11-16T23:16:52.366Z,9.76
2022-11-16T23:19:20.937Z,9.74
2022-11-16T23:21:47.641Z,9.92
2022-11-16T23:24:15.255Z,10.17
2022-11-16T23:26:43.464Z,10.04
2022-11-16T23:29:11.070Z,10.07
2022-11-16T23:31:38.572Z,9.72
2022-11-16T23:34:05.450Z,9.94
2022-11-16T23:36:32.157Z,10.07
2022-11-16T23:38:58.892Z,9.71
2022-11-16T23:41:25.639Z,10.02
2022-11-16T23:43:53.722Z,10.16
2022-11-16T23:46:20.455Z,10.19
2022-11-16T23:48:47.131Z,9.49
2022-11-16T23:51:13.797Z,9.75
2022-11-16T23:53:40.479Z,9.82
2022-11-16T23:56:07.707Z,9.95
2022-11-16T23:58:34.574Z,10.23
